Time;durP1;ratioP1;P1;durP2;ratioP2;P2;SDS_P1;SDS_P2;PMS_P1;PMS_P2;Temp;Humidity;BMP_temperature;BMP_pressure;BME280_temperature;BME280_humidity;BME280_pressure;Samples;Min_cycle;Max_cycle;Signal;HPM_P1;HPM_P2
2022/06/13 12:45:24;;;;;;;7.50;3.28;;;;;;;;;;3010872;39;20441;-54
2022/06/13 12:47:59;;;;;;;8.00;3.30;;;;;;;;;;3365575;42;20726;-57
2022/06/13 12:50:29;;;;;;;7.55;3.13;;;;;;;;;;3364291;42;20088;-55
2022/06/13 12:53:08;;;;;;;8.00;3.30;;;;;;;;;;3374111;42;20098;-56
2022/06/13 12:56:02;;;;;;;7.38;3.20;;;;;;;;;;3369808;42;20100;-55
2022/06/13 12:58:37;;;;;;;8.40;3.58;;;;;;;;;;3369842;42;20155;-59
2022/06/13 13:01:18;;;;;;;9.63;3.50;;;;;;;;;;3374347;42;20232;-57
2022/06/13 13:04:24;;;;;;;8.30;3.38;;;;;;;;;;3372969;42;20084;-58
2022/06/13 13:07:13;;;;;;;8.13;3.22;;;;;;;;;;3369893;42;20133;-58
2022/06/13 13:09:50;;;;;;;9.57;3.60;;;;;;;;;;3370084;42;20092;-58
2022/06/13 13:12:30;;;;;;;8.63;3.17;;;;;;;;;;3365401;42;20110;-56
2022/06/13 13:15:17;;;;;;;6.30;2.93;;;;;;;;;;3371237;42;20127;-57
2022/06/13 13:18:01;;;;;;;7.65;3.60;;;;;;;;;;3380374;42;20173;-58
2022/06/13 13:20:41;;;;;;;7.15;3.00;;;;;;;;;;3368171;42;20582;-58
2022/06/13 13:23:24;;;;;;;6.60;3.10;;;;;;;;;;3364532;42;20148;-56
2022/06/13 13:26:03;;;;;;;7.85;2.78;;;;;;;;;;3365921;42;20375;-58
2022/06/13 13:28:57;;;;;;;13.30;3.30;;;;;;;;;;3369772;42;20087;-60
2022/06/13 13:31:41;;;;;;;6.53;2.97;;;;;;;;;;3366730;42;20222;-58
2022/06/13 13:34:38;;;;;;;11.95;3.58;;;;;;;;;;3366624;42;20107;-57
2022/06/13 13:37:21;;;;;;;6.80;3.00;;;;;;;;;;3365200;42;20151;-57
2022/06/13 13:40:02;;;;;;;7.00;3.05;;;;;;;;;;3368464;42;20577;-58
2022/06/13 13:42:52;;;;;;;7.57;3.30;;;;;;;;;;3366122;42;20563;-59
2022/06/13 13:45:36;;;;;;;6.70;3.42;;;;;;;;;;3357622;42;20095;-59
2022/06/13 13:48:13;;;;;;;6.45;2.92;;;;;;;;;;3369689;42;20135;-57
2022/06/13 13:50:48;;;;;;;7.65;3.20;;;;;;;;;;3358457;42;20158;-58
2022/06/13 13:53:16;;;;;;;6.20;2.90;;;;;;;;;;3356666;42;20088;-58
2022/06/13 13:55:49;;;;;;;8.53;3.90;;;;;;;;;;3360141;42;20584;-58
2022/06/13 13:58:32;;;;;;;8.05;3.65;;;;;;;;;;3366910;42;20083;-58
2022/06/13 14:01:20;;;;;;;7.38;3.30;;;;;;;;;;3366940;42;20161;-60
2022/06/13 14:03:59;;;;;;;30.83;4.07;;;;;;;;;;3366113;42;20103;-58
2022/06/13 14:06:33;;;;;;;9.55;3.33;;;;;;;;;;3366932;42;20677;-58
2022/06/13 14:09:01;;;;;;;9.80;3.70;;;;;;;;;;3357529;42;20087;-59
2022/06/13 14:11:27;;;;;;;7.70;3.42;;;;;;;;;;3361362;42;20525;-58
2022/06/13 14:14:02;;;;;;;10.25;3.38;;;;;;;;;;3365880;42;20143;-59
2022/06/13 14:16:36;;;;;;;8.40;3.60;;;;;;;;;;3366467;42;20092;-58
2022/06/13 14:19:12;;;;;;;10.05;3.60;;;;;;;;;;3366885;42;20107;-58
2022/06/13 14:21:49;;;;;;;9.37;3.20;;;;;;;;;;3359660;42;20639;-59
2022/06/13 14:24:19;;;;;;;8.38;3.20;;;;;;;;;;3363009;42;20143;-58
2022/06/13 14:26:47;;;;;;;8.15;3.13;;;;;;;;;;3359689;42;20100;-59
2022/06/13 14:29:14;;;;;;;8.93;3.30;;;;;;;;;;3369199;42;20099;-58
2022/06/13 14:32:01;;;;;;;6.93;3.20;;;;;;;;;;3361117;42;20092;-59
2022/06/13 14:37:29;;;;;;;8.93;2.67;;;;;;;;;;3370180;42;20084;-57
2022/06/13 14:39:59;;;;;;;9.68;3.03;;;;;;;;;;3367714;42;20084;-58
2022/06/13 14:42:35;;;;;;;7.05;2.88;;;;;;;;;;3363423;42;20658;-59
2022/06/13 14:45:08;;;;;;;53.28;6.38;;;;;;;;;;3358286;42;20545;-60
2022/06/13 14:47:34;;;;;;;14.33;3.30;;;;;;;;;;3360695;42;20235;-58
2022/06/13 14:50:00;;;;;;;7.72;3.90;;;;;;;;;;3364280;42;20100;-60
2022/06/13 14:52:30;;;;;;;9.70;2.80;;;;;;;;;;3365271;42;20092;-60
2022/06/13 14:55:02;;;;;;;7.40;3.10;;;;;;;;;;3367325;42;20151;-55
2022/06/13 14:57:28;;;;;;;9.60;3.43;;;;;;;;;;3366816;42;20095;-59
2022/06/13 15:00:03;;;;;;;6.57;3.00;;;;;;;;;;3370297;42;20146;-58
2022/06/13 15:02:31;;;;;;;6.18;3.03;;;;;;;;;;3369538;42;20130;-59
2022/06/13 15:05:05;;;;;;;8.52;3.17;;;;;;;;;;3359500;42;20099;-59
2022/06/13 15:07:44;;;;;;;6.10;3.10;;;;;;;;;;3359193;42;20131;-58
2022/06/13 15:10:40;;;;;;;8.17;2.67;;;;;;;;;;3355593;42;20087;-57
2022/06/13 15:13:06;;;;;;;8.43;2.90;;;;;;;;;;3350572;42;20563;-59
2022/06/13 15:15:34;;;;;;;9.38;3.10;;;;;;;;;;3355903;42;20140;-60
2022/06/13 15:18:00;;;;;;;9.75;3.00;;;;;;;;;;3354189;42;20099;-60
2022/06/13 15:20:31;;;;;;;8.73;3.53;;;;;;;;;;3358153;42;20091;-59
2022/06/13 15:23:04;;;;;;;9.30;2.90;;;;;;;;;;3359263;42;20218;-59
2022/06/13 15:25:49;;;;;;;6.45;2.83;;;;;;;;;;3366008;42;20100;-59
2022/06/13 15:28:17;;;;;;;9.20;3.55;;;;;;;;;;3365193;42;20100;-57
2022/06/13 15:30:46;;;;;;;7.72;3.20;;;;;;;;;;3358631;42;20144;-60
2022/06/13 15:33:21;;;;;;;10.32;3.30;;;;;;;;;;3367045;42;20146;-59
2022/06/13 15:35:48;;;;;;;9.27;3.30;;;;;;;;;;3366106;42;20092;-59
2022/06/13 15:38:22;;;;;;;10.77;3.45;;;;;;;;;;3364036;42;20126;-59
2022/06/13 15:40:50;;;;;;;9.10;3.15;;;;;;;;;;3358263;42;20651;-56
2022/06/13 15:43:23;;;;;;;9.40;3.00;;;;;;;;;;3365912;42;20100;-58
2022/06/13 15:45:53;;;;;;;9.65;3.40;;;;;;;;;;3359017;42;20158;-59
2022/06/13 15:48:19;;;;;;;19.50;3.40;;;;;;;;;;3366012;42;20159;-61
2022/06/13 15:50:45;;;;;;;9.02;3.65;;;;;;;;;;3365891;42;20080;-59
2022/06/13 15:53:29;;;;;;;10.60;4.10;;;;;;;;;;3365789;42;20095;-58
2022/06/13 15:55:55;;;;;;;8.75;3.45;;;;;;;;;;3360126;42;20098;-58
2022/06/13 15:58:23;;;;;;;8.32;3.38;;;;;;;;;;3365751;42;20100;-61
2022/06/13 16:00:49;;;;;;;10.13;3.73;;;;;;;;;;3365470;42;20080;-63
2022/06/13 16:03:18;;;;;;;13.63;3.40;;;;;;;;;;3365534;42;20566;-58
2022/06/13 16:05:58;;;;;;;8.70;3.33;;;;;;;;;;3356598;42;20136;-59
2022/06/13 16:08:25;;;;;;;9.10;3.00;;;;;;;;;;3351102;42;20096;-60
2022/06/13 16:10:52;;;;;;;9.95;3.20;;;;;;;;;;3351964;42;20130;-60
2022/06/13 16:13:38;;;;;;;6.93;2.90;;;;;;;;;;3363840;42;20095;-60
2022/06/13 16:16:06;;;;;;;9.48;3.30;;;;;;;;;;3357900;42;20103;-60
2022/06/13 16:18:42;;;;;;;8.45;3.03;;;;;;;;;;3358049;42;20100;-57
2022/06/13 16:21:16;;;;;;;7.88;2.88;;;;;;;;;;3366327;42;20091;-59
2022/06/13 16:23:48;;;;;;;9.35;2.92;;;;;;;;;;3358235;42;20092;-58
2022/06/13 16:26:15;;;;;;;9.63;2.90;;;;;;;;;;3361104;42;20092;-57
2022/06/13 16:28:41;;;;;;;7.53;2.95;;;;;;;;;;3365353;42;20099;-57
2022/06/13 16:31:11;;;;;;;10.70;3.42;;;;;;;;;;3365304;42;20112;-58
2022/06/13 16:33:42;;;;;;;7.05;3.22;;;;;;;;;;3355523;42;20135;-58
2022/06/13 16:36:49;;;;;;;8.70;3.42;;;;;;;;;;3360571;42;20088;-58
2022/06/13 16:39:15;;;;;;;8.37;3.20;;;;;;;;;;3360368;42;20138;-58
2022/06/13 16:41:41;;;;;;;10.05;3.40;;;;;;;;;;3365115;42;20100;-56
2022/06/13 16:44:08;;;;;;;7.25;3.20;;;;;;;;;;3372044;42;20321;-59
2022/06/13 16:46:50;;;;;;;8.93;3.30;;;;;;;;;;3364688;42;20147;-59
2022/06/13 16:49:33;;;;;;;8.27;3.30;;;;;;;;;;3361710;42;20091;-58
2022/06/13 16:52:05;;;;;;;7.60;3.10;;;;;;;;;;3369014;42;20674;-60
2022/06/13 16:54:36;;;;;;;8.40;3.10;;;;;;;;;;3365174;42;20080;-58
2022/06/13 16:57:18;;;;;;;7.20;3.35;;;;;;;;;;3365225;42;20088;-58
2022/06/13 16:59:53;;;;;;;8.07;3.20;;;;;;;;;;3365747;42;20088;-56
2022/06/13 17:02:20;;;;;;;13.25;3.33;;;;;;;;;;3365402;42;20092;-57
2022/06/13 17:04:46;;;;;;;8.47;3.27;;;;;;;;;;3356399;42;20093;-59
2022/06/13 17:07:13;;;;;;;15.27;3.95;;;;;;;;;;3360724;42;20553;-58
2022/06/13 17:10:04;;;;;;;10.80;3.72;;;;;;;;;;3363212;42;20185;-58
2022/06/13 17:12:54;;;;;;;8.98;3.90;;;;;;;;;;3365205;42;20102;-58
2022/06/13 17:15:20;;;;;;;13.57;3.90;;;;;;;;;;3367405;42;20152;-55
2022/06/13 17:17:46;;;;;;;8.30;3.63;;;;;;;;;;3359136;42;20493;-58
2022/06/13 17:20:27;;;;;;;8.20;3.50;;;;;;;;;;3366584;42;20110;-59
2022/06/13 17:22:54;;;;;;;8.18;3.63;;;;;;;;;;3357887;42;20149;-60
2022/06/13 17:25:21;;;;;;;10.35;3.40;;;;;;;;;;3354087;42;20684;-59
2022/06/13 17:33:24;;;;;;;9.07;3.40;;;;;;;;;;3365735;42;20102;-59
2022/06/13 17:35:50;;;;;;;9.38;3.72;;;;;;;;;;3369543;42;20127;-58
2022/06/13 17:38:16;;;;;;;8.00;3.50;;;;;;;;;;3366425;42;20088;-57
2022/06/13 17:40:44;;;;;;;9.00;3.50;;;;;;;;;;3364335;42;20574;-58
2022/06/13 17:43:10;;;;;;;9.53;3.60;;;;;;;;;;3365910;42;20099;-59
2022/06/13 17:45:36;;;;;;;8.85;3.70;;;;;;;;;;3366390;42;20106;-59
2022/06/13 17:48:03;;;;;;;11.07;3.75;;;;;;;;;;3370691;42;20252;-60
2022/06/13 17:50:29;;;;;;;9.38;3.47;;;;;;;;;;3357090;42;20171;-59
2022/06/13 17:52:55;;;;;;;9.55;3.95;;;;;;;;;;3362632;42;20091;-57
2022/06/13 17:55:22;;;;;;;11.20;3.70;;;;;;;;;;3365608;42;20578;-56
2022/06/13 17:57:48;;;;;;;7.50;3.85;;;;;;;;;;3364180;42;20107;-58
2022/06/13 18:00:20;;;;;;;8.32;3.50;;;;;;;;;;3356060;42;20170;-58
2022/06/13 18:02:46;;;;;;;9.60;3.50;;;;;;;;;;3360819;42;20095;-59
2022/06/13 18:05:12;;;;;;;10.23;3.60;;;;;;;;;;3366794;42;20088;-57
2022/06/13 18:07:41;;;;;;;11.20;3.60;;;;;;;;;;3361432;42;20199;-59
2022/06/13 18:10:07;;;;;;;11.32;3.58;;;;;;;;;;3368265;42;20107;-59
2022/06/13 18:12:33;;;;;;;14.27;3.97;;;;;;;;;;3368133;42;20561;-58
2022/06/13 18:15:00;;;;;;;8.30;3.65;;;;;;;;;;3367758;42;20126;-56
2022/06/13 18:17:28;;;;;;;9.20;3.97;;;;;;;;;;3368879;42;20114;-57
2022/06/13 18:19:54;;;;;;;8.37;3.20;;;;;;;;;;3357164;42;20165;-60
2022/06/13 18:22:21;;;;;;;9.63;3.70;;;;;;;;;;3365736;42;20100;-58
2022/06/13 18:24:47;;;;;;;9.45;3.60;;;;;;;;;;3353301;42;20622;-61
2022/06/13 18:27:16;;;;;;;8.63;4.00;;;;;;;;;;3356598;42;20151;-60
2022/06/13 18:29:43;;;;;;;10.18;3.53;;;;;;;;;;3359256;42;20099;-57
2022/06/13 18:32:10;;;;;;;9.17;3.37;;;;;;;;;;3366849;42;20091;-58
2022/06/13 18:34:36;;;;;;;8.23;3.85;;;;;;;;;;3368241;42;20557;-57
2022/06/13 18:37:02;;;;;;;10.85;4.05;;;;;;;;;;3368941;42;20102;-54
2022/06/13 18:39:28;;;;;;;7.95;3.85;;;;;;;;;;3368638;42;20213;-61
2022/06/13 18:41:54;;;;;;;13.07;4.05;;;;;;;;;;3368980;42;20079;-58
2022/06/13 18:44:20;;;;;;;9.27;3.77;;;;;;;;;;3367920;42;20130;-58
2022/06/13 18:46:46;;;;;;;12.18;4.18;;;;;;;;;;3368827;42;20501;-56
2022/06/13 18:49:12;;;;;;;12.00;4.00;;;;;;;;;;3370146;42;20113;-55
2022/06/13 18:51:38;;;;;;;9.93;3.55;;;;;;;;;;3360986;42;20564;-57
2022/06/13 18:54:04;;;;;;;12.05;4.10;;;;;;;;;;3361732;42;20094;-56
2022/06/13 18:56:31;;;;;;;8.63;3.70;;;;;;;;;;3368191;42;20094;-59
2022/06/13 18:58:57;;;;;;;8.57;3.85;;;;;;;;;;3369046;42;20173;-57
2022/06/13 19:01:23;;;;;;;8.88;3.65;;;;;;;;;;3367109;42;20100;-57
2022/06/13 19:03:52;;;;;;;11.55;4.00;;;;;;;;;;3361474;42;20101;-59
2022/06/13 19:06:18;;;;;;;10.95;3.97;;;;;;;;;;3352262;42;20654;-56
2022/06/13 19:08:45;;;;;;;12.13;4.00;;;;;;;;;;3361460;42;20194;-59
2022/06/13 19:11:13;;;;;;;8.82;4.10;;;;;;;;;;3360341;42;20134;-60
2022/06/13 19:13:40;;;;;;;9.45;4.40;;;;;;;;;;3354210;42;20593;-57
2022/06/13 19:16:07;;;;;;;12.57;4.10;;;;;;;;;;3376719;42;20616;-58
2022/06/13 19:18:34;;;;;;;8.77;3.70;;;;;;;;;;3361861;42;20119;-59
2022/06/13 19:21:00;;;;;;;8.57;3.70;;;;;;;;;;3362705;42;20103;-60
2022/06/13 19:23:26;;;;;;;9.57;3.72;;;;;;;;;;3375780;42;20104;-58
2022/06/13 19:25:54;;;;;;;8.38;4.05;;;;;;;;;;3369244;42;20579;-59
2022/06/13 19:28:23;;;;;;;10.77;4.07;;;;;;;;;;3362331;42;20092;-60
2022/06/13 19:30:49;;;;;;;9.73;3.85;;;;;;;;;;3353291;42;20151;-62
2022/06/13 19:33:15;;;;;;;10.63;4.00;;;;;;;;;;3366883;42;20155;-62
2022/06/13 19:35:43;;;;;;;9.95;3.97;;;;;;;;;;3376377;42;20167;-61
2022/06/13 19:38:11;;;;;;;10.13;4.20;;;;;;;;;;3361567;42;20573;-60
2022/06/13 19:40:37;;;;;;;10.25;3.95;;;;;;;;;;3353994;42;20153;-62
2022/06/13 19:43:04;;;;;;;9.35;4.18;;;;;;;;;;3361468;42;20095;-61
2022/06/13 19:45:30;;;;;;;9.23;3.97;;;;;;;;;;3361102;42;20091;-64
2022/06/13 19:47:57;;;;;;;10.40;4.30;;;;;;;;;;3368805;42;20169;-60
2022/06/13 19:50:24;;;;;;;11.20;4.40;;;;;;;;;;3360876;42;20095;-64
2022/06/13 19:53:10;;;;;;;9.15;4.25;;;;;;;;;;3368242;42;20831;-62
2022/06/13 19:55:42;;;;;;;10.07;4.40;;;;;;;;;;3360410;42;20095;-62
2022/06/13 19:58:09;;;;;;;14.57;4.53;;;;;;;;;;3366328;42;20153;-61
2022/06/13 20:00:35;;;;;;;10.30;4.50;;;;;;;;;;3352918;42;20139;-60
2022/06/13 20:03:01;;;;;;;8.80;4.70;;;;;;;;;;3369182;42;20103;-61
2022/06/13 20:05:30;;;;;;;11.00;4.35;;;;;;;;;;3368278;42;20114;-61
2022/06/13 20:10:41;;;;;;;15.80;4.40;;;;;;;;;;3375544;42;20131;-61
2022/06/13 20:13:09;;;;;;;10.48;4.50;;;;;;;;;;3368531;42;20598;-61
2022/06/13 20:15:36;;;;;;;10.63;4.47;;;;;;;;;;3369207;42;20113;-59
2022/06/13 20:18:03;;;;;;;10.63;4.38;;;;;;;;;;3362963;42;20091;-62
2022/06/13 20:20:30;;;;;;;10.40;4.53;;;;;;;;;;3353787;42;20151;-61
2022/06/13 20:22:56;;;;;;;10.33;4.50;;;;;;;;;;3365288;42;20091;-60
2022/06/13 20:25:22;;;;;;;15.05;5.00;;;;;;;;;;3369564;42;20095;-60
2022/06/13 20:27:48;;;;;;;10.52;4.95;;;;;;;;;;3368400;42;20099;-61
2022/06/13 20:30:15;;;;;;;10.85;4.80;;;;;;;;;;3367975;42;20100;-61
2022/06/13 20:32:41;;;;;;;11.50;5.15;;;;;;;;;;3367575;42;20147;-60
2022/06/13 20:35:08;;;;;;;12.07;4.63;;;;;;;;;;3367957;42;20127;-61
2022/06/13 20:37:34;;;;;;;10.45;4.78;;;;;;;;;;3360778;42;20107;-62
2022/06/13 20:40:08;;;;;;;12.00;5.00;;;;;;;;;;3360086;42;20163;-61
2022/06/13 20:42:37;;;;;;;11.13;4.50;;;;;;;;;;3368204;42;20099;-63
2022/06/13 20:45:04;;;;;;;11.73;4.95;;;;;;;;;;3360993;42;20100;-60
2022/06/13 20:47:34;;;;;;;9.97;4.83;;;;;;;;;;3368517;42;20091;-60
2022/06/13 20:50:00;;;;;;;14.15;5.35;;;;;;;;;;3369455;42;20103;-63
2022/06/13 20:52:27;;;;;;;10.82;4.95;;;;;;;;;;3362949;42;20669;-61
2022/06/13 20:54:53;;;;;;;13.73;5.93;;;;;;;;;;3364253;42;20095;-61
2022/06/13 20:57:19;;;;;;;10.98;5.57;;;;;;;;;;3370001;42;20139;-62
2022/06/13 20:59:45;;;;;;;11.27;5.03;;;;;;;;;;3370504;42;20133;-62
2022/06/13 21:02:17;;;;;;;9.43;4.78;;;;;;;;;;3371118;42;20099;-62
2022/06/13 21:04:48;;;;;;;13.07;5.30;;;;;;;;;;3361951;42;20106;-61
2022/06/13 21:07:15;;;;;;;11.90;5.45;;;;;;;;;;3362249;42;20153;-62
2022/06/13 21:12:26;;;;;;;11.13;5.20;;;;;;;;;;3363760;42;20114;-62
2022/06/13 21:14:53;;;;;;;15.38;6.07;;;;;;;;;;3369704;42;20217;-61
2022/06/13 21:17:19;;;;;;;13.13;5.60;;;;;;;;;;3369885;42;20652;-62
2022/06/13 21:19:45;;;;;;;13.20;5.40;;;;;;;;;;3368544;42;20095;-63
2022/06/13 21:22:11;;;;;;;12.73;5.63;;;;;;;;;;3369716;42;20092;-60
2022/06/13 21:24:37;;;;;;;13.37;5.60;;;;;;;;;;3370506;42;20122;-62
2022/06/13 21:27:07;;;;;;;14.90;5.60;;;;;;;;;;3361979;42;20084;-60
2022/06/13 21:29:34;;;;;;;12.15;5.70;;;;;;;;;;3368334;42;20222;-62
2022/06/13 21:32:00;;;;;;;13.52;5.97;;;;;;;;;;3377436;42;20091;-61
2022/06/13 21:34:26;;;;;;;13.27;5.20;;;;;;;;;;3369209;42;20143;-61
2022/06/13 21:36:52;;;;;;;11.77;5.20;;;;;;;;;;3363719;42;20246;-60
2022/06/13 21:39:18;;;;;;;11.45;5.30;;;;;;;;;;3370142;42;20288;-60
2022/06/13 21:41:44;;;;;;;14.93;5.90;;;;;;;;;;3370396;42;20084;-61
2022/06/13 21:44:10;;;;;;;12.75;5.40;;;;;;;;;;3362742;42;20102;-60
2022/06/13 21:46:36;;;;;;;11.18;5.28;;;;;;;;;;3369201;42;20099;-61
2022/06/13 21:49:03;;;;;;;10.93;5.80;;;;;;;;;;3362684;42;20151;-62
2022/06/13 21:51:30;;;;;;;12.65;5.85;;;;;;;;;;3363381;42;20140;-61
2022/06/13 21:53:56;;;;;;;12.68;5.70;;;;;;;;;;3372742;42;20107;-61
2022/06/13 21:56:22;;;;;;;11.63;5.53;;;;;;;;;;3369339;42;20185;-64
2022/06/13 21:58:49;;;;;;;11.57;5.60;;;;;;;;;;3369930;42;20095;-61
2022/06/13 22:01:15;;;;;;;11.83;5.87;;;;;;;;;;3369173;42;20155;-62
2022/06/13 22:03:41;;;;;;;12.38;5.63;;;;;;;;;;3355346;42;20088;-63
2022/06/13 22:06:07;;;;;;;13.35;5.78;;;;;;;;;;3369906;42;20546;-62
2022/06/13 22:08:33;;;;;;;12.45;5.43;;;;;;;;;;3369942;42;20096;-64
2022/06/13 22:11:00;;;;;;;13.10;5.25;;;;;;;;;;3368799;42;20140;-63
2022/06/13 22:13:26;;;;;;;12.83;5.90;;;;;;;;;;3368646;42;20135;-61
2022/06/13 22:15:52;;;;;;;12.98;5.63;;;;;;;;;;3368627;42;20131;-62
2022/06/13 22:18:18;;;;;;;13.32;6.07;;;;;;;;;;3370157;42;20094;-62
2022/06/13 22:20:45;;;;;;;12.55;5.60;;;;;;;;;;3367998;42;20151;-61
2022/06/13 22:23:11;;;;;;;13.02;5.72;;;;;;;;;;3369482;42;20173;-61
2022/06/13 22:25:38;;;;;;;11.20;5.67;;;;;;;;;;3367646;42;20136;-63
2022/06/13 22:28:05;;;;;;;12.43;5.85;;;;;;;;;;3368827;42;20126;-61
2022/06/13 22:30:32;;;;;;;14.45;6.35;;;;;;;;;;3368728;42;20173;-64
2022/06/13 22:32:59;;;;;;;12.98;6.22;;;;;;;;;;3354453;42;20099;-61
2022/06/13 22:35:26;;;;;;;13.13;6.13;;;;;;;;;;3369054;42;20175;-61
2022/06/13 22:37:52;;;;;;;15.57;6.00;;;;;;;;;;3368741;42;20623;-61
2022/06/13 22:40:18;;;;;;;13.32;5.90;;;;;;;;;;3362185;42;20096;-60
2022/06/13 22:42:44;;;;;;;12.55;6.35;;;;;;;;;;3366983;42;20092;-61
2022/06/13 22:45:10;;;;;;;11.40;5.80;;;;;;;;;;3367274;42;20115;-62
2022/06/13 22:50:21;;;;;;;12.53;5.50;;;;;;;;;;3368827;42;20083;-62
2022/06/13 22:52:47;;;;;;;12.13;5.97;;;;;;;;;;3361637;42;20230;-62
2022/06/13 22:55:16;;;;;;;14.32;6.43;;;;;;;;;;3370443;42;20616;-61
2022/06/13 22:57:42;;;;;;;12.55;6.22;;;;;;;;;;3370478;42;20103;-61
2022/06/13 23:00:10;;;;;;;11.93;5.88;;;;;;;;;;3368710;42;20091;-60
2022/06/13 23:02:36;;;;;;;14.17;6.00;;;;;;;;;;3369290;42;20094;-64
2022/06/13 23:05:03;;;;;;;11.48;5.60;;;;;;;;;;3370311;42;20091;-62
2022/06/13 23:07:29;;;;;;;13.45;6.03;;;;;;;;;;3369415;42;20095;-62
2022/06/13 23:09:55;;;;;;;14.27;6.18;;;;;;;;;;3358150;42;20536;-63
2022/06/13 23:12:21;;;;;;;15.95;6.28;;;;;;;;;;3365054;42;20080;-62
2022/06/13 23:14:47;;;;;;;14.63;5.97;;;;;;;;;;3365193;42;20106;-61
2022/06/13 23:17:13;;;;;;;14.63;6.75;;;;;;;;;;3372851;42;20114;-63
2022/06/13 23:19:39;;;;;;;15.80;6.90;;;;;;;;;;3365127;42;20145;-62
2022/06/13 23:22:05;;;;;;;15.05;6.38;;;;;;;;;;3365706;42;20109;-62
2022/06/13 23:24:31;;;;;;;13.50;6.80;;;;;;;;;;3365497;42;20588;-62
2022/06/13 23:26:57;;;;;;;13.67;6.60;;;;;;;;;;3369001;42;20143;-62
2022/06/13 23:29:23;;;;;;;15.95;6.70;;;;;;;;;;3365364;42;20126;-62
2022/06/13 23:31:49;;;;;;;14.48;6.97;;;;;;;;;;3363815;42;20104;-63
2022/06/13 23:34:15;;;;;;;14.75;6.57;;;;;;;;;;3362780;42;20562;-62
2022/06/13 23:36:41;;;;;;;12.23;5.97;;;;;;;;;;3362387;42;20095;-63
2022/06/13 23:39:07;;;;;;;15.07;6.30;;;;;;;;;;3371005;42;20088;-61
2022/06/13 23:41:33;;;;;;;13.80;6.43;;;;;;;;;;3364153;42;20211;-61
2022/06/13 23:44:00;;;;;;;13.20;6.72;;;;;;;;;;3362917;42;20094;-61
2022/06/13 23:46:26;;;;;;;13.93;6.60;;;;;;;;;;3361723;42;20106;-62
2022/06/13 23:48:52;;;;;;;15.98;6.93;;;;;;;;;;3361132;42;20095;-63
2022/06/13 23:51:18;;;;;;;12.93;6.23;;;;;;;;;;3363263;42;20100;-61
2022/06/13 23:53:45;;;;;;;15.45;6.85;;;;;;;;;;3365498;42;20558;-60
2022/06/13 23:56:11;;;;;;;14.30;6.70;;;;;;;;;;3366519;42;20143;-63
2022/06/13 23:58:37;;;;;;;14.57;6.03;;;;;;;;;;3365574;42;20096;-62
